Time;durP1;ratioP1;P1;durP2;ratioP2;P2;SDS_P1;SDS_P2;PMS_P1;PMS_P2;Temp;Humidity;BMP_temperature;BMP_pressure;BME280_temperature;BME280_humidity;BME280_pressure;Samples;Min_cycle;Max_cycle;Signal;HPM_P1;HPM_P2
2021/01/30 00:00:18;;;;;;;6.72;5.30;;;;;;;;;;5079689;28;20095;-85
2021/01/30 00:02:44;;;;;;;10.10;5.40;;;;;;;;;;5080595;28;20077;-84
2021/01/30 00:05:11;;;;;;;11.23;5.88;;;;;;;;;;5080210;28;20070;-83
2021/01/30 00:07:37;;;;;;;7.15;5.75;;;;;;;;;;5080526;28;20139;-85
2021/01/30 00:10:04;;;;;;;5.95;4.97;;;;;;;;;;5079980;28;20030;-83
2021/01/30 00:12:30;;;;;;;6.80;5.28;;;;;;;;;;5080651;28;20040;-84
2021/01/30 00:14:56;;;;;;;7.53;5.70;;;;;;;;;;5080591;28;20027;-84
2021/01/30 00:17:22;;;;;;;8.27;5.40;;;;;;;;;;5079907;28;20134;-84
2021/01/30 00:19:48;;;;;;;6.03;4.97;;;;;;;;;;5079761;28;20476;-84
2021/01/30 00:22:16;;;;;;;6.32;4.85;;;;;;;;;;5079092;28;20138;-83
2021/01/30 00:24:42;;;;;;;5.68;5.07;;;;;;;;;;5080281;28;20031;-85
2021/01/30 00:27:10;;;;;;;8.63;5.28;;;;;;;;;;5079778;28;20027;-86
2021/01/30 00:29:36;;;;;;;6.47;5.65;;;;;;;;;;5080092;28;20324;-83
2021/01/30 00:32:03;;;;;;;6.00;5.40;;;;;;;;;;5097496;28;20397;-85
2021/01/30 00:34:30;;;;;;;5.60;5.03;;;;;;;;;;5079810;28;20093;-83
2021/01/30 00:36:57;;;;;;;8.07;5.40;;;;;;;;;;5080883;28;20032;-83
2021/01/30 00:39:24;;;;;;;7.60;5.60;;;;;;;;;;5080319;28;20092;-83
2021/01/30 00:41:50;;;;;;;6.32;4.80;;;;;;;;;;5080071;28;20028;-86
2021/01/30 00:44:17;;;;;;;8.77;5.10;;;;;;;;;;5080053;28;20257;-84
2021/01/30 00:46:43;;;;;;;8.18;5.53;;;;;;;;;;5079781;28;20024;-84
2021/01/30 00:49:09;;;;;;;7.97;5.05;;;;;;;;;;5079221;28;20031;-82
2021/01/30 00:51:35;;;;;;;5.47;4.88;;;;;;;;;;5097291;28;20051;-86
2021/01/30 00:54:01;;;;;;;4.68;4.28;;;;;;;;;;5079316;28;20058;-84
2021/01/30 00:56:27;;;;;;;7.70;4.80;;;;;;;;;;5078839;28;20054;-83
2021/01/30 00:58:54;;;;;;;5.22;4.72;;;;;;;;;;5097828;28;20032;-88
2021/01/30 01:01:20;;;;;;;6.55;4.88;;;;;;;;;;5078808;28;20020;-83
2021/01/30 01:03:46;;;;;;;5.00;4.50;;;;;;;;;;5079306;28;20066;-85
2021/01/30 01:06:12;;;;;;;5.93;4.90;;;;;;;;;;5079242;28;20050;-83
2021/01/30 01:08:38;;;;;;;5.07;4.15;;;;;;;;;;5097086;28;20043;-84
2021/01/30 01:11:04;;;;;;;5.88;4.82;;;;;;;;;;5096944;28;20024;-85
2021/01/30 01:13:30;;;;;;;5.20;4.60;;;;;;;;;;5096433;28;20122;-83
2021/01/30 01:15:57;;;;;;;7.97;5.00;;;;;;;;;;5079131;28;20024;-84
2021/01/30 01:18:23;;;;;;;6.07;4.18;;;;;;;;;;5079338;28;20062;-85
2021/01/30 01:20:49;;;;;;;6.60;4.88;;;;;;;;;;5098135;28;20431;-85
2021/01/30 01:23:16;;;;;;;5.32;4.82;;;;;;;;;;5079114;28;20417;-84
2021/01/30 01:25:42;;;;;;;5.78;5.18;;;;;;;;;;5078820;28;20031;-84
2021/01/30 01:28:08;;;;;;;5.85;4.72;;;;;;;;;;5078893;28;20051;-83
2021/01/30 01:30:34;;;;;;;5.82;5.22;;;;;;;;;;5079107;28;20020;-82
2021/01/30 01:33:01;;;;;;;5.88;5.28;;;;;;;;;;5096812;28;20028;-85
2021/01/30 01:35:28;;;;;;;7.10;5.60;;;;;;;;;;5079171;28;20078;-81
2021/01/30 01:37:55;;;;;;;8.07;5.50;;;;;;;;;;5096478;28;20058;-82
2021/01/30 01:40:23;;;;;;;6.45;5.72;;;;;;;;;;5078589;28;20046;-82
2021/01/30 01:42:49;;;;;;;6.63;5.65;;;;;;;;;;5079026;28;20032;-83
2021/01/30 01:45:16;;;;;;;7.07;6.38;;;;;;;;;;5078868;28;20073;-83
2021/01/30 01:47:45;;;;;;;7.53;6.68;;;;;;;;;;5079091;28;20377;-84
2021/01/30 01:50:30;;;;;;;9.82;8.40;;;;;;;;;;5096066;28;20028;-86
2021/01/30 01:53:00;;;;;;;9.93;8.98;;;;;;;;;;5072773;28;20426;-84
2021/01/30 01:55:26;;;;;;;12.13;8.93;;;;;;;;;;5081500;28;20038;-85
2021/01/30 01:57:53;;;;;;;9.90;8.20;;;;;;;;;;5081992;28;20042;-85
2021/01/30 02:00:23;;;;;;;9.43;7.70;;;;;;;;;;5013279;28;20029;-84
2021/01/30 02:02:51;;;;;;;7.43;6.57;;;;;;;;;;5013652;28;20531;-85
2021/01/30 02:05:28;;;;;;;7.72;7.03;;;;;;;;;;5081428;28;20034;-85
2021/01/30 02:07:55;;;;;;;8.13;6.97;;;;;;;;;;5081922;28;20034;-84
2021/01/30 02:10:23;;;;;;;9.77;8.63;;;;;;;;;;5081564;28;20049;-84
2021/01/30 02:12:51;;;;;;;8.88;8.00;;;;;;;;;;5081663;28;20033;-84
2021/01/30 02:15:18;;;;;;;9.25;8.27;;;;;;;;;;5081369;28;20044;-84
2021/01/30 02:18:07;;;;;;;9.90;8.52;;;;;;;;;;5013179;28;20038;-86
2021/01/30 02:20:52;;;;;;;9.88;8.57;;;;;;;;;;5071578;28;20042;-83
2021/01/30 02:23:33;;;;;;;11.07;7.90;;;;;;;;;;5050423;28;20386;-83
2021/01/30 02:26:16;;;;;;;12.45;9.38;;;;;;;;;;5075930;28;20390;-86
2021/01/30 02:29:03;;;;;;;11.05;9.55;;;;;;;;;;5059460;28;20329;-83
2021/01/30 02:32:01;;;;;;;13.48;9.48;;;;;;;;;;5070421;28;20055;-87
2021/01/30 02:34:46;;;;;;;12.23;9.40;;;;;;;;;;5032240;28;20037;-84
2021/01/30 02:37:19;;;;;;;10.20;8.70;;;;;;;;;;5075902;28;20044;-85
2021/01/30 02:39:48;;;;;;;13.73;9.07;;;;;;;;;;5058611;28;20043;-83
2021/01/30 02:42:14;;;;;;;11.88;9.82;;;;;;;;;;5058226;28;20190;-84
2021/01/30 02:44:56;;;;;;;13.23;8.38;;;;;;;;;;5064971;28;20031;-84
2021/01/30 02:47:24;;;;;;;10.75;9.65;;;;;;;;;;5088440;28;20025;-84
2021/01/30 02:49:53;;;;;;;11.95;8.40;;;;;;;;;;5079308;28;20032;-83
2021/01/30 02:52:22;;;;;;;10.70;9.25;;;;;;;;;;5063153;28;20028;-84
2021/01/30 02:54:48;;;;;;;11.43;9.20;;;;;;;;;;5078963;28;20360;-85
2021/01/30 02:57:17;;;;;;;10.57;8.85;;;;;;;;;;5079086;28;20086;-82
2021/01/30 02:59:53;;;;;;;10.20;9.10;;;;;;;;;;5094765;28;20028;-85
2021/01/30 03:02:21;;;;;;;11.20;9.07;;;;;;;;;;5078461;28;20028;-84
2021/01/30 03:04:49;;;;;;;11.40;9.55;;;;;;;;;;5085171;28;20081;-84
2021/01/30 03:07:27;;;;;;;10.45;8.68;;;;;;;;;;5094935;28;20032;-84
2021/01/30 03:10:02;;;;;;;9.75;8.63;;;;;;;;;;5095436;28;20149;-84
2021/01/30 03:12:31;;;;;;;13.85;9.80;;;;;;;;;;5079149;28;20025;-83
2021/01/30 03:15:02;;;;;;;10.00;8.50;;;;;;;;;;5113061;28;20031;-82
2021/01/30 03:17:31;;;;;;;10.70;9.63;;;;;;;;;;5098316;28;20051;-83
2021/01/30 03:19:58;;;;;;;10.63;9.50;;;;;;;;;;5090137;28;20077;-83
2021/01/30 03:22:24;;;;;;;8.98;8.02;;;;;;;;;;5081259;28;20079;-84
2021/01/30 03:24:51;;;;;;;10.32;9.23;;;;;;;;;;5098566;28;20024;-83
2021/01/30 03:27:19;;;;;;;11.13;8.65;;;;;;;;;;5080996;28;20181;-84
2021/01/30 03:29:46;;;;;;;9.80;8.63;;;;;;;;;;5080799;28;20024;-83
2021/01/30 03:32:12;;;;;;;9.25;8.27;;;;;;;;;;5098539;28;20054;-84
2021/01/30 03:34:38;;;;;;;10.30;9.10;;;;;;;;;;5098565;28;20024;-85
2021/01/30 03:37:04;;;;;;;9.55;8.00;;;;;;;;;;5080614;28;20134;-84
2021/01/30 03:39:30;;;;;;;9.20;8.18;;;;;;;;;;5081105;28;20028;-83
2021/01/30 03:41:56;;;;;;;11.07;8.68;;;;;;;;;;5080631;28;20085;-82
2021/01/30 03:44:22;;;;;;;9.25;7.40;;;;;;;;;;5080625;28;20031;-85
2021/01/30 03:46:48;;;;;;;9.27;8.30;;;;;;;;;;5080106;28;20069;-83
2021/01/30 03:49:14;;;;;;;8.85;7.95;;;;;;;;;;5080510;28;20081;-85
2021/01/30 03:51:40;;;;;;;9.60;8.50;;;;;;;;;;5080963;28;20024;-84
2021/01/30 03:54:07;;;;;;;10.10;8.20;;;;;;;;;;5097441;28;20032;-84
2021/01/30 03:56:33;;;;;;;10.23;8.23;;;;;;;;;;5083288;28;20230;-86
2021/01/30 03:58:59;;;;;;;9.30;8.38;;;;;;;;;;5093212;28;20036;-84
2021/01/30 04:01:32;;;;;;;9.85;8.90;;;;;;;;;;5094068;28;20409;-84
2021/01/30 04:03:58;;;;;;;9.45;8.45;;;;;;;;;;5093962;28;20039;-85
2021/01/30 04:06:24;;;;;;;11.45;8.80;;;;;;;;;;5077681;28;20447;-85
2021/01/30 04:08:50;;;;;;;9.93;8.93;;;;;;;;;;5077802;28;20028;-84
2021/01/30 04:11:16;;;;;;;9.93;8.40;;;;;;;;;;5094215;28;20078;-85
2021/01/30 04:13:42;;;;;;;9.88;8.88;;;;;;;;;;5077675;28;20028;-83
2021/01/30 04:16:08;;;;;;;9.63;8.63;;;;;;;;;;5093578;28;20020;-85
2021/01/30 04:18:34;;;;;;;10.55;8.05;;;;;;;;;;5077939;28;20067;-85
2021/01/30 04:21:01;;;;;;;10.32;9.20;;;;;;;;;;5077230;28;20016;-84
2021/01/30 04:23:27;;;;;;;11.60;9.45;;;;;;;;;;5093512;28;20056;-84
2021/01/30 04:25:53;;;;;;;10.32;9.27;;;;;;;;;;5093462;28;20030;-84
2021/01/30 04:28:19;;;;;;;10.07;8.85;;;;;;;;;;5077945;28;20040;-84
2021/01/30 04:30:45;;;;;;;10.45;9.45;;;;;;;;;;5093638;28;20394;-83
2021/01/30 04:33:11;;;;;;;10.60;9.40;;;;;;;;;;5077472;28;20474;-86
2021/01/30 04:35:37;;;;;;;8.80;8.00;;;;;;;;;;5094188;28;20078;-83
2021/01/30 04:38:04;;;;;;;12.43;8.80;;;;;;;;;;5092857;28;20044;-83
2021/01/30 04:40:30;;;;;;;10.63;9.18;;;;;;;;;;5093712;28;20032;-85
2021/01/30 04:42:59;;;;;;;10.30;9.27;;;;;;;;;;5077104;28;20050;-83
2021/01/30 04:45:42;;;;;;;9.82;8.82;;;;;;;;;;5093125;28;20037;-84
2021/01/30 04:48:20;;;;;;;10.10;9.10;;;;;;;;;;5093312;28;20043;-85
2021/01/30 04:50:49;;;;;;;11.30;9.40;;;;;;;;;;5093861;28;20131;-84
2021/01/30 04:53:18;;;;;;;10.10;8.90;;;;;;;;;;5093558;28;20367;-83
2021/01/30 04:55:53;;;;;;;9.90;8.90;;;;;;;;;;5077495;28;20043;-83
2021/01/30 04:58:45;;;;;;;9.93;9.00;;;;;;;;;;5092591;28;20048;-84
2021/01/30 05:01:17;;;;;;;9.48;8.48;;;;;;;;;;5033029;28;20030;-82
2021/01/30 05:03:56;;;;;;;9.68;8.68;;;;;;;;;;4991044;28;20045;-83
2021/01/30 05:06:34;;;;;;;11.33;10.13;;;;;;;;;;4995121;28;20030;-82
2021/01/30 05:09:02;;;;;;;11.13;10.10;;;;;;;;;;4993921;28;20030;-83
2021/01/30 05:11:29;;;;;;;11.85;9.40;;;;;;;;;;4994211;28;20035;-82
2021/01/30 05:14:01;;;;;;;9.50;8.55;;;;;;;;;;4994720;28;20129;-84
2021/01/30 05:16:41;;;;;;;10.25;9.27;;;;;;;;;;4993993;28;20148;-83
2021/01/30 05:19:10;;;;;;;8.80;7.90;;;;;;;;;;4994959;28;20054;-83
2021/01/30 05:21:52;;;;;;;9.30;8.43;;;;;;;;;;4994218;28;20030;-85
2021/01/30 05:24:19;;;;;;;9.77;8.77;;;;;;;;;;4995253;28;20064;-85
2021/01/30 05:26:52;;;;;;;10.75;9.60;;;;;;;;;;4994138;28;20329;-84
2021/01/30 05:29:22;;;;;;;9.80;8.90;;;;;;;;;;4994331;28;20061;-84
2021/01/30 05:32:00;;;;;;;10.38;9.32;;;;;;;;;;4994234;28;20080;-82
2021/01/30 05:34:32;;;;;;;9.00;8.20;;;;;;;;;;4994692;28;20026;-82
2021/01/30 05:37:04;;;;;;;9.13;8.32;;;;;;;;;;4993610;28;20048;-82
2021/01/30 05:39:36;;;;;;;9.43;8.52;;;;;;;;;;4994252;28;20041;-82
2021/01/30 05:42:09;;;;;;;10.40;9.35;;;;;;;;;;4994541;28;20129;-82
2021/01/30 05:44:49;;;;;;;9.10;8.30;;;;;;;;;;4994864;28;20038;-82
2021/01/30 05:47:21;;;;;;;8.60;7.88;;;;;;;;;;4994484;28;20031;-82
2021/01/30 05:49:56;;;;;;;9.02;8.20;;;;;;;;;;4995484;28;20022;-81
2021/01/30 05:52:26;;;;;;;8.55;7.75;;;;;;;;;;4997849;28;20125;-80
2021/01/30 05:54:52;;;;;;;9.40;8.55;;;;;;;;;;4996867;28;20037;-81
2021/01/30 05:57:18;;;;;;;8.43;7.65;;;;;;;;;;4997590;28;20050;-83
2021/01/30 05:59:48;;;;;;;8.10;7.40;;;;;;;;;;4997906;28;20068;-81
2021/01/30 06:02:15;;;;;;;8.23;7.43;;;;;;;;;;4995001;28;20107;-83
2021/01/30 06:04:41;;;;;;;8.88;7.70;;;;;;;;;;4994875;28;20052;-84
2021/01/30 06:07:17;;;;;;;7.00;6.32;;;;;;;;;;4994159;28;20032;-82
2021/01/30 06:09:45;;;;;;;9.48;8.52;;;;;;;;;;4995788;28;20077;-84
2021/01/30 06:12:32;;;;;;;7.80;7.07;;;;;;;;;;4995060;28;20058;-83
2021/01/30 06:15:10;;;;;;;7.30;6.63;;;;;;;;;;4995395;28;20030;-82
2021/01/30 06:17:36;;;;;;;8.07;7.28;;;;;;;;;;4997130;28;20104;-83
2021/01/30 06:20:09;;;;;;;6.97;6.38;;;;;;;;;;4997205;28;20026;-82
2021/01/30 06:22:35;;;;;;;6.85;6.25;;;;;;;;;;5000027;28;20030;-83
2021/01/30 06:25:20;;;;;;;7.15;6.45;;;;;;;;;;4998210;28;20041;-83
2021/01/30 06:27:46;;;;;;;7.63;7.03;;;;;;;;;;4996846;28;20330;-82
2021/01/30 06:30:15;;;;;;;7.18;6.47;;;;;;;;;;4997117;28;20080;-81
2021/01/30 06:32:48;;;;;;;7.32;6.63;;;;;;;;;;4997465;28;20034;-83
2021/01/30 06:35:20;;;;;;;7.38;6.68;;;;;;;;;;4997584;28;20056;-83
2021/01/30 06:37:54;;;;;;;7.03;6.43;;;;;;;;;;4996667;28;20038;-84
2021/01/30 06:40:26;;;;;;;7.00;6.30;;;;;;;;;;4997244;28;20030;-85
2021/01/30 06:42:54;;;;;;;7.00;6.40;;;;;;;;;;4996221;28;20030;-84
2021/01/30 06:45:30;;;;;;;7.07;6.47;;;;;;;;;;4996259;28;20444;-83
2021/01/30 06:47:57;;;;;;;6.90;6.28;;;;;;;;;;4996006;28;20035;-83
2021/01/30 06:50:34;;;;;;;6.60;5.90;;;;;;;;;;5011159;28;20041;-82
2021/01/30 06:53:19;;;;;;;6.70;6.10;;;;;;;;;;5064589;28;20034;-82
2021/01/30 06:55:45;;;;;;;7.28;6.00;;;;;;;;;;5063541;28;20032;-82
2021/01/30 06:58:23;;;;;;;6.60;5.78;;;;;;;;;;5072190;28;20032;-83
2021/01/30 07:00:50;;;;;;;5.97;5.38;;;;;;;;;;5098829;28;20043;-83
2021/01/30 07:03:48;;;;;;;6.38;5.75;;;;;;;;;;5097521;28;20028;-84
2021/01/30 07:06:20;;;;;;;6.00;5.50;;;;;;;;;;5041375;28;20048;-84
2021/01/30 07:08:55;;;;;;;6.40;5.80;;;;;;;;;;5081541;28;20055;-83
2021/01/30 07:11:31;;;;;;;6.45;5.85;;;;;;;;;;5081162;28;20073;-82
2021/01/30 07:13:57;;;;;;;6.55;5.95;;;;;;;;;;5098746;28;20020;-83
2021/01/30 07:16:42;;;;;;;9.55;5.63;;;;;;;;;;5077187;28;20039;-84
2021/01/30 07:19:28;;;;;;;6.10;5.50;;;;;;;;;;5070880;28;20118;-83
2021/01/30 07:22:07;;;;;;;6.35;5.75;;;;;;;;;;5096958;28;20435;-82
2021/01/30 07:24:42;;;;;;;5.22;4.72;;;;;;;;;;5081867;28;20099;-83
2021/01/30 07:27:14;;;;;;;6.30;4.95;;;;;;;;;;5068982;28;20046;-83
2021/01/30 07:29:46;;;;;;;5.28;4.78;;;;;;;;;;5091027;28;20067;-84
2021/01/30 07:32:13;;;;;;;5.88;4.93;;;;;;;;;;5094513;28;20071;-83
2021/01/30 07:34:57;;;;;;;4.38;4.03;;;;;;;;;;5076894;28;20078;-84
2021/01/30 07:37:28;;;;;;;4.72;4.22;;;;;;;;;;5074232;28;20047;-82
2021/01/30 07:40:02;;;;;;;4.85;4.45;;;;;;;;;;5098302;28;20039;-84
2021/01/30 07:42:31;;;;;;;4.50;4.10;;;;;;;;;;5097841;28;20177;-84
2021/01/30 07:45:01;;;;;;;4.88;4.38;;;;;;;;;;5079931;28;20062;-82
2021/01/30 07:47:46;;;;;;;4.93;4.43;;;;;;;;;;5079680;28;20038;-85
2021/01/30 07:50:20;;;;;;;4.60;4.20;;;;;;;;;;5097576;28;20031;-84
2021/01/30 07:53:01;;;;;;;5.13;4.53;;;;;;;;;;5075018;28;20089;-84
2021/01/30 07:55:28;;;;;;;4.47;4.05;;;;;;;;;;5069742;28;20033;-82
2021/01/30 07:58:07;;;;;;;5.13;4.53;;;;;;;;;;5024074;28;20102;-85
2021/01/30 08:00:36;;;;;;;4.93;4.38;;;;;;;;;;5089751;28;20035;-84
2021/01/30 08:03:21;;;;;;;4.03;3.70;;;;;;;;;;5078445;28;20035;-82
2021/01/30 08:06:00;;;;;;;3.80;3.50;;;;;;;;;;5076107;28;20028;-83
2021/01/30 08:08:27;;;;;;;4.43;4.03;;;;;;;;;;5092063;28;20055;-83
2021/01/30 08:11:10;;;;;;;8.45;3.92;;;;;;;;;;5075739;28;20059;-84
2021/01/30 08:13:51;;;;;;;4.18;3.78;;;;;;;;;;5090476;28;20024;-85
2021/01/30 08:16:37;;;;;;;3.72;3.42;;;;;;;;;;5076499;28;20082;-83
2021/01/30 08:19:15;;;;;;;4.47;4.07;;;;;;;;;;5074452;28;20035;-83
2021/01/30 08:22:01;;;;;;;4.20;3.80;;;;;;;;;;5071156;28;20081;-82
2021/01/30 08:24:45;;;;;;;3.92;3.63;;;;;;;;;;5090259;28;20028;-84
2021/01/30 08:27:29;;;;;;;4.00;3.70;;;;;;;;;;5077515;28;20037;-83
2021/01/30 08:30:00;;;;;;;4.78;4.35;;;;;;;;;;5079212;28;20035;-84
2021/01/30 08:32:26;;;;;;;5.00;4.30;;;;;;;;;;5078706;28;20367;-86
2021/01/30 08:34:53;;;;;;;5.03;4.43;;;;;;;;;;5078548;28;20028;-85
2021/01/30 08:37:19;;;;;;;3.88;3.45;;;;;;;;;;5082903;28;20355;-84
2021/01/30 08:40:04;;;;;;;3.80;3.50;;;;;;;;;;5094845;28;20020;-84
2021/01/30 08:42:31;;;;;;;3.97;3.58;;;;;;;;;;5077801;28;20032;-84
2021/01/30 08:44:57;;;;;;;4.13;3.72;;;;;;;;;;5083842;28;20015;-83
2021/01/30 08:47:27;;;;;;;3.88;3.50;;;;;;;;;;5019447;28;20063;-82
2021/01/30 08:49:59;;;;;;;3.42;3.03;;;;;;;;;;5076742;28;20137;-83
2021/01/30 08:52:34;;;;;;;3.28;2.97;;;;;;;;;;5097844;28;20035;-82
2021/01/30 08:55:20;;;;;;;3.58;3.28;;;;;;;;;;5095779;28;20087;-83
2021/01/30 08:57:47;;;;;;;4.63;3.40;;;;;;;;;;5094418;28;20040;-83
2021/01/30 09:00:33;;;;;;;3.92;3.53;;;;;;;;;;5092209;28;20039;-85
2021/01/30 09:03:04;;;;;;;4.07;3.70;;;;;;;;;;5028126;28;20048;-84
2021/01/30 09:05:33;;;;;;;3.90;3.53;;;;;;;;;;5066950;28;20506;-84
2021/01/30 09:08:00;;;;;;;5.10;3.50;;;;;;;;;;5095112;28;20032;-85
2021/01/30 09:10:29;;;;;;;3.47;3.17;;;;;;;;;;5073091;28;20043;-83
2021/01/30 09:13:00;;;;;;;3.25;2.95;;;;;;;;;;5025170;28;20042;-83
2021/01/30 09:15:41;;;;;;;3.88;3.50;;;;;;;;;;5061816;28;20039;-83
2021/01/30 09:18:23;;;;;;;3.72;3.38;;;;;;;;;;5061761;28;20099;-83
2021/01/30 09:21:07;;;;;;;3.75;3.25;;;;;;;;;;4992157;28;20027;-84
2021/01/30 09:23:52;;;;;;;3.30;3.00;;;;;;;;;;5058259;28;20043;-83
2021/01/30 09:26:21;;;;;;;7.30;3.65;;;;;;;;;;5095866;28;20039;-83
2021/01/30 09:28:54;;;;;;;4.60;3.08;;;;;;;;;;5096222;28;20114;-85
2021/01/30 09:31:20;;;;;;;4.53;3.75;;;;;;;;;;5096000;28;20328;-82
2021/01/30 09:34:05;;;;;;;3.53;3.20;;;;;;;;;;5095517;28;20036;-83
2021/01/30 09:36:51;;;;;;;4.40;3.45;;;;;;;;;;5083419;28;20028;-83
2021/01/30 09:39:21;;;;;;;3.38;3.08;;;;;;;;;;5077453;28;20386;-82
2021/01/30 09:41:47;;;;;;;;;;;;;;;;;;5074530;28;20039;-82
2021/01/30 09:44:18;;;;;;;3.25;2.95;;;;;;;;;;5093971;28;20034;-82
2021/01/30 09:46:46;;;;;;;3.85;3.45;;;;;;;;;;5042435;28;20045;-83
2021/01/30 09:49:21;;;;;;;4.13;3.70;;;;;;;;;;5080645;28;20026;-83
2021/01/30 09:51:47;;;;;;;4.05;3.30;;;;;;;;;;5009399;28;20434;-82
2021/01/30 09:54:18;;;;;;;3.50;3.20;;;;;;;;;;5064116;28;20035;-85
2021/01/30 09:56:45;;;;;;;3.83;3.42;;;;;;;;;;5099978;28;20032;-84
2021/01/30 09:59:13;;;;;;;3.85;3.45;;;;;;;;;;5081566;28;20028;-83
2021/01/30 10:01:41;;;;;;;3.97;3.22;;;;;;;;;;5082125;28;20067;-84
2021/01/30 10:04:13;;;;;;;5.25;4.20;;;;;;;;;;5107503;28;20572;-84
2021/01/30 10:06:40;;;;;;;6.20;3.13;;;;;;;;;;5080904;28;20098;-84
2021/01/30 10:09:32;;;;;;;4.45;3.20;;;;;;;;;;5087799;28;20047;-83
2021/01/30 10:11:59;;;;;;;4.05;2.97;;;;;;;;;;5087119;28;20040;-84
2021/01/30 10:14:25;;;;;;;3.33;3.03;;;;;;;;;;5069144;28;20032;-84
2021/01/30 10:17:03;;;;;;;3.95;3.47;;;;;;;;;;5075568;28;20301;-84
2021/01/30 10:19:32;;;;;;;3.25;2.95;;;;;;;;;;5106125;28;20093;-83
2021/01/30 10:21:58;;;;;;;5.10;3.22;;;;;;;;;;5088019;28;20024;-84
2021/01/30 10:24:29;;;;;;;3.35;2.70;;;;;;;;;;5085762;28;20032;-84
2021/01/30 10:27:11;;;;;;;3.45;2.55;;;;;;;;;;5055327;28;20030;-83
2021/01/30 10:29:37;;;;;;;2.20;2.10;;;;;;;;;;5067811;28;20129;-86
2021/01/30 10:32:08;;;;;;;4.32;2.50;;;;;;;;;;5084090;28;20036;-83
2021/01/30 10:34:42;;;;;;;3.92;2.47;;;;;;;;;;5097858;28;20118;-84
2021/01/30 10:37:10;;;;;;;2.38;2.10;;;;;;;;;;5100919;28;20364;-84
2021/01/30 10:39:39;;;;;;;2.45;2.13;;;;;;;;;;5099717;28;20035;-83
2021/01/30 10:42:11;;;;;;;7.50;2.60;;;;;;;;;;5102659;28;20035;-83
2021/01/30 10:44:38;;;;;;;3.00;2.70;;;;;;;;;;5080387;28;20163;-84
2021/01/30 10:47:05;;;;;;;2.45;2.25;;;;;;;;;;5080006;28;20035;-82
2021/01/30 10:49:32;;;;;;;2.53;2.33;;;;;;;;;;5080739;28;20028;-84
2021/01/30 10:52:06;;;;;;;1.98;1.88;;;;;;;;;;5079058;28;20063;-82
2021/01/30 10:54:33;;;;;;;2.10;1.90;;;;;;;;;;5066389;28;20058;-83
2021/01/30 10:57:22;;;;;;;2.35;1.77;;;;;;;;;;5095835;28;20093;-85
2021/01/30 11:00:02;;;;;;;2.97;1.98;;;;;;;;;;5084109;28;20034;-84
2021/01/30 11:02:37;;;;;;;1.90;1.75;;;;;;;;;;5077434;28;20048;-85
2021/01/30 11:05:07;;;;;;;2.55;2.17;;;;;;;;;;5068023;28;20043;-83
2021/01/30 11:07:33;;;;;;;;;;;;;;;;;;5062373;28;20134;-83
2021/01/30 11:09:59;;;;;;;2.33;1.88;;;;;;;;;;5061976;28;19917;-84
2021/01/30 11:12:25;;;;;;;2.72;1.92;;;;;;;;;;5069169;28;20035;-82
2021/01/30 11:14:52;;;;;;;2.25;2.03;;;;;;;;;;5079857;28;20035;-85
2021/01/30 11:17:21;;;;;;;3.55;2.35;;;;;;;;;;5090534;28;20044;-82
2021/01/30 11:19:47;;;;;;;3.75;1.70;;;;;;;;;;5108501;28;20028;-86
2021/01/30 11:22:21;;;;;;;4.15;1.98;;;;;;;;;;5079644;28;20027;-85
2021/01/30 11:24:48;;;;;;;2.95;2.38;;;;;;;;;;5101801;28;20043;-84
2021/01/30 11:27:26;;;;;;;1.60;1.50;;;;;;;;;;5109731;28;20039;-84
2021/01/30 11:29:52;;;;;;;2.95;1.83;;;;;;;;;;5097924;28;20479;-84
2021/01/30 11:32:21;;;;;;;2.58;2.00;;;;;;;;;;5119642;28;20115;-83
2021/01/30 11:34:53;;;;;;;2.33;1.90;;;;;;;;;;5116676;28;20115;-84
2021/01/30 11:37:19;;;;;;;2.63;1.75;;;;;;;;;;5120498;28;20176;-86
2021/01/30 11:39:45;;;;;;;2.40;2.00;;;;;;;;;;5086107;28;20024;-85
2021/01/30 11:42:11;;;;;;;3.05;2.33;;;;;;;;;;5079564;28;20028;-84
2021/01/30 11:44:37;;;;;;;2.22;2.03;;;;;;;;;;5078110;28;20339;-82
2021/01/30 11:47:03;;;;;;;2.20;1.90;;;;;;;;;;5077797;28;20099;-83
2021/01/30 11:49:29;;;;;;;3.17;2.10;;;;;;;;;;5081031;28;20027;-85
2021/01/30 11:51:56;;;;;;;2.05;1.83;;;;;;;;;;5080598;28;20032;-84
2021/01/30 11:54:22;;;;;;;3.75;2.10;;;;;;;;;;5098793;28;20028;-87
2021/01/30 11:56:48;;;;;;;2.17;1.88;;;;;;;;;;5076736;28;20031;-84
2021/01/30 11:59:14;;;;;;;2.65;2.15;;;;;;;;;;5080839;28;20035;-85
2021/01/30 12:01:41;;;;;;;2.70;2.28;;;;;;;;;;5098030;28;20133;-84
2021/01/30 12:04:07;;;;;;;2.10;1.75;;;;;;;;;;5080877;28;20027;-83
2021/01/30 12:06:33;;;;;;;2.40;1.85;;;;;;;;;;5100024;28;20036;-84
2021/01/30 12:09:00;;;;;;;2.63;2.17;;;;;;;;;;5081391;28;20028;-84
2021/01/30 12:11:26;;;;;;;2.42;2.00;;;;;;;;;;5080953;28;20061;-84
2021/01/30 12:13:52;;;;;;;2.30;1.77;;;;;;;;;;5081629;28;20062;-85
2021/01/30 12:16:22;;;;;;;2.00;1.80;;;;;;;;;;5099288;28;20036;-84
2021/01/30 12:18:48;;;;;;;2.45;2.00;;;;;;;;;;5080608;28;20035;-83
2021/01/30 12:21:14;;;;;;;2.78;1.90;;;;;;;;;;5072930;28;20285;-84
2021/01/30 12:23:40;;;;;;;2.83;2.10;;;;;;;;;;5091516;28;20025;-84
2021/01/30 12:26:07;;;;;;;2.15;1.88;;;;;;;;;;5095325;28;20043;-84
2021/01/30 12:28:35;;;;;;;2.38;1.88;;;;;;;;;;5086863;28;20058;-85
2021/01/30 12:31:01;;;;;;;2.92;2.00;;;;;;;;;;5077818;28;20017;-84
2021/01/30 12:33:27;;;;;;;2.63;2.10;;;;;;;;;;5097389;28;20012;-84
2021/01/30 12:35:53;;;;;;;3.78;2.38;;;;;;;;;;5048298;28;20260;-85
2021/01/30 12:38:20;;;;;;;2.47;2.28;;;;;;;;;;5079870;28;20029;-86
2021/01/30 12:40:47;;;;;;;2.60;2.15;;;;;;;;;;5100157;28;20054;-83
2021/01/30 12:43:14;;;;;;;5.47;2.40;;;;;;;;;;5088291;28;20108;-85
2021/01/30 12:45:40;;;;;;;2.00;1.80;;;;;;;;;;5092951;28;20010;-84
2021/01/30 12:48:06;;;;;;;3.30;2.33;;;;;;;;;;5107172;28;20025;-84
2021/01/30 12:50:33;;;;;;;2.42;2.20;;;;;;;;;;5095306;28;20020;-85
2021/01/30 12:52:59;;;;;;;2.55;1.92;;;;;;;;;;5095539;28;20573;-84
2021/01/30 12:55:25;;;;;;;3.08;2.13;;;;;;;;;;5110115;28;20016;-84
2021/01/30 12:57:52;;;;;;;3.42;2.50;;;;;;;;;;5097189;28;20019;-85
2021/01/30 13:00:20;;;;;;;2.80;2.15;;;;;;;;;;5114166;28;20044;-85
2021/01/30 13:02:46;;;;;;;3.55;2.63;;;;;;;;;;5094613;28;20055;-84
2021/01/30 13:05:13;;;;;;;2.42;2.22;;;;;;;;;;5106744;28;20023;-85
2021/01/30 13:07:40;;;;;;;5.07;2.60;;;;;;;;;;5096748;28;20012;-84
2021/01/30 13:10:07;;;;;;;2.80;2.50;;;;;;;;;;5092070;28;20012;-84
2021/01/30 13:12:33;;;;;;;3.55;3.05;;;;;;;;;;5109617;28;20095;-83
2021/01/30 13:14:59;;;;;;;3.28;2.50;;;;;;;;;;5091871;28;20016;-85
2021/01/30 13:17:26;;;;;;;3.33;2.88;;;;;;;;;;5111279;28;20032;-83
2021/01/30 13:19:52;;;;;;;3.30;2.50;;;;;;;;;;5092461;28;20024;-85
2021/01/30 13:22:26;;;;;;;5.50;2.60;;;;;;;;;;5082386;28;20043;-84
2021/01/30 13:24:52;;;;;;;2.50;2.30;;;;;;;;;;5085351;28;20024;-83
2021/01/30 13:27:18;;;;;;;3.53;2.65;;;;;;;;;;5089274;28;20066;-84
2021/01/30 13:29:45;;;;;;;3.15;2.35;;;;;;;;;;5086122;28;20036;-82
2021/01/30 13:32:11;;;;;;;3.17;2.38;;;;;;;;;;5094039;28;20078;-83
2021/01/30 13:34:37;;;;;;;4.22;2.17;;;;;;;;;;5089956;28;20070;-85
2021/01/30 13:37:04;;;;;;;2.70;2.47;;;;;;;;;;5086571;28;20036;-83
2021/01/30 13:39:30;;;;;;;3.40;2.65;;;;;;;;;;5095812;28;20021;-84
2021/01/30 13:41:56;;;;;;;2.70;2.50;;;;;;;;;;5068246;28;20124;-85
2021/01/30 13:44:24;;;;;;;2.28;2.08;;;;;;;;;;5067384;28;20047;-83
2021/01/30 13:46:50;;;;;;;2.75;2.50;;;;;;;;;;5064062;28;20041;-82
2021/01/30 13:49:17;;;;;;;3.47;2.47;;;;;;;;;;5036544;28;20028;-82
2021/01/30 13:51:43;;;;;;;2.97;2.72;;;;;;;;;;5079612;28;20056;-82
2021/01/30 13:54:11;;;;;;;2.97;2.67;;;;;;;;;;5078603;28;20122;-83
2021/01/30 13:56:38;;;;;;;2.80;2.42;;;;;;;;;;5078007;28;20024;-85
2021/01/30 13:59:04;;;;;;;3.05;2.58;;;;;;;;;;5077257;28;20032;-85
2021/01/30 14:01:31;;;;;;;3.47;2.42;;;;;;;;;;5076595;28;20130;-85
2021/01/30 14:03:57;;;;;;;4.30;3.03;;;;;;;;;;5089249;28;20035;-84
2021/01/30 14:06:23;;;;;;;3.58;2.80;;;;;;;;;;5068095;28;20050;-84
2021/01/30 14:08:49;;;;;;;2.80;2.35;;;;;;;;;;5075578;28;20039;-85
2021/01/30 14:11:15;;;;;;;3.03;2.38;;;;;;;;;;5073424;28;20032;-84
2021/01/30 14:13:41;;;;;;;4.57;3.33;;;;;;;;;;5085864;28;20020;-85
2021/01/30 14:16:07;;;;;;;4.15;2.53;;;;;;;;;;5065986;28;20035;-84
2021/01/30 14:18:34;;;;;;;2.78;2.35;;;;;;;;;;5077068;28;20031;-86
2021/01/30 14:21:00;;;;;;;2.58;2.33;;;;;;;;;;5090207;28;20115;-83
2021/01/30 14:23:26;;;;;;;5.10;2.35;;;;;;;;;;5089052;28;20030;-83
2021/01/30 14:25:53;;;;;;;3.38;2.20;;;;;;;;;;5087511;28;20028;-84
2021/01/30 14:28:22;;;;;;;2.67;2.47;;;;;;;;;;5073023;28;20044;-85
2021/01/30 14:30:50;;;;;;;4.32;2.65;;;;;;;;;;5066227;28;20068;-84
2021/01/30 14:33:16;;;;;;;3.45;2.30;;;;;;;;;;5063486;28;20052;-84
2021/01/30 14:35:42;;;;;;;2.45;2.25;;;;;;;;;;5075617;28;20343;-83
2021/01/30 14:38:09;;;;;;;2.42;2.22;;;;;;;;;;5092396;28;20118;-85
2021/01/30 14:40:41;;;;;;;3.42;2.90;;;;;;;;;;5063838;28;20041;-83
2021/01/30 14:43:07;;;;;;;2.13;1.92;;;;;;;;;;5071152;28;20043;-83
2021/01/30 14:45:33;;;;;;;2.50;2.30;;;;;;;;;;5091581;28;20046;-83
2021/01/30 14:48:00;;;;;;;3.00;2.38;;;;;;;;;;5077427;28;20035;-83
2021/01/30 14:50:26;;;;;;;4.13;2.03;;;;;;;;;;5078781;28;20021;-84
2021/01/30 14:52:52;;;;;;;4.07;2.10;;;;;;;;;;5084008;28;20032;-84
2021/01/30 14:55:19;;;;;;;2.53;2.15;;;;;;;;;;5085173;28;20024;-85
2021/01/30 14:57:45;;;;;;;2.65;2.40;;;;;;;;;;5074806;28;20041;-83